Francis Place, Louisiana
Current Conditions -  °F | °C
As of 9:53 PM on Saturday 22 Nov 2014 (Local Time) from KNEW Reporting Station
Haze Haze  
Wind Chill: 62°   Ceiling: 300
Heat Index: 62°   Visibility: 4mi
Dew Point: 60°   Wind: 23mph
Humidity: 93%   Direction: 100°E
Pressure: 29.94"   Gusts: 32mph
Location:  29.9486°N, 89.8975°W
Report Text: KNEW 230353Z AUTO 10020G28KT 4SM BR OVC003 17/16 A2994 RMK AO2 PK WND 10028/0353 SLP131 T01670156 TSNO
Loading
Personal Weather Stations






























Interactive Weather Map New forecast layout! Learn more

10-Day Weather Forecast

Advertisements
Track Severe Weather on mobile